Time;durP1;ratioP1;P1;durP2;ratioP2;P2;SDS_P1;SDS_P2;PMS_P1;PMS_P2;Temp;Humidity;BMP_temperature;BMP_pressure;BME280_temperature;BME280_humidity;BME280_pressure;Samples;Min_cycle;Max_cycle;Signal;HPM_P1;HPM_P2
2022/04/24 00:00:40;;;;;;;11.25;6.45;;;;;;;;;;5095489;27;97233;-75
2022/04/24 00:03:07;;;;;;;9.23;7.03;;;;;;;;;;5096227;27;97152;-76
2022/04/24 00:05:33;;;;;;;10.35;6.57;;;;;;;;;;5095164;27;97553;-76
2022/04/24 00:08:00;;;;;;;10.35;6.72;;;;;;;;;;5095885;27;95269;-75
2022/04/24 00:10:26;;;;;;;12.27;6.68;;;;;;;;;;5095870;27;96579;-75
2022/04/24 00:12:52;;;;;;;12.02;6.60;;;;;;;;;;5097750;27;97472;-75
2022/04/24 00:15:18;;;;;;;9.55;6.72;;;;;;;;;;5096106;27;96734;-74
2022/04/24 00:17:45;;;;;;;9.48;6.82;;;;;;;;;;5094430;27;96763;-74
2022/04/24 00:20:11;;;;;;;10.73;7.30;;;;;;;;;;5095796;27;95316;-74
2022/04/24 00:22:37;;;;;;;12.90;7.38;;;;;;;;;;5095790;27;96668;-74
2022/04/24 00:25:04;;;;;;;10.23;7.53;;;;;;;;;;5094589;27;97294;-74
2022/04/24 00:27:32;;;;;;;10.05;7.43;;;;;;;;;;5095574;27;95123;-74
2022/04/24 00:29:58;;;;;;;10.80;7.63;;;;;;;;;;5096006;27;96850;-73
2022/04/24 00:32:24;;;;;;;10.48;7.35;;;;;;;;;;5093460;27;97091;-75
2022/04/24 00:34:50;;;;;;;9.80;7.15;;;;;;;;;;5099442;27;95334;-73
2022/04/24 00:37:17;;;;;;;11.18;7.82;;;;;;;;;;5095438;27;97318;-73
2022/04/24 00:39:43;;;;;;;11.15;7.30;;;;;;;;;;5095248;27;95280;-73
2022/04/24 00:42:09;;;;;;;10.80;8.00;;;;;;;;;;5095860;27;96811;-75
2022/04/24 00:44:36;;;;;;;11.18;7.80;;;;;;;;;;5094960;27;97500;-75
2022/04/24 00:47:06;;;;;;;12.52;7.78;;;;;;;;;;5093617;27;95416;-76
2022/04/24 00:49:33;;;;;;;12.05;8.27;;;;;;;;;;5095432;27;96833;-76
2022/04/24 00:51:59;;;;;;;12.15;7.63;;;;;;;;;;5094804;27;97394;-75
2022/04/24 00:54:26;;;;;;;13.25;8.38;;;;;;;;;;5094802;27;95135;-75
2022/04/24 00:56:52;;;;;;;13.15;9.13;;;;;;;;;;5098889;27;96824;-75
2022/04/24 00:59:18;;;;;;;10.68;8.38;;;;;;;;;;5095190;27;95423;-75
2022/04/24 01:01:45;;;;;;;11.48;8.73;;;;;;;;;;5092177;27;97061;-75
2022/04/24 01:04:12;;;;;;;14.35;9.15;;;;;;;;;;5094464;27;96530;-76
2022/04/24 01:06:42;;;;;;;12.18;9.07;;;;;;;;;;5091311;27;95366;-76
2022/04/24 01:09:28;;;;;;;11.38;8.98;;;;;;;;;;5088609;27;96963;-75
2022/04/24 01:11:56;;;;;;;11.82;8.48;;;;;;;;;;5095110;27;97357;-75
2022/04/24 01:14:25;;;;;;;12.25;8.60;;;;;;;;;;5094123;27;95616;-75
2022/04/24 01:16:51;;;;;;;16.00;9.13;;;;;;;;;;5094541;27;96298;-75
2022/04/24 01:19:20;;;;;;;10.90;8.52;;;;;;;;;;5094664;27;97274;-74
2022/04/24 01:21:47;;;;;;;13.88;9.35;;;;;;;;;;5094845;27;96796;-75
2022/04/24 01:24:15;;;;;;;13.88;9.20;;;;;;;;;;5094318;27;97277;-74
2022/04/24 01:26:41;;;;;;;14.07;9.15;;;;;;;;;;5093630;27;95447;-74
2022/04/24 01:29:09;;;;;;;14.18;9.68;;;;;;;;;;5094323;27;96859;-74
2022/04/24 01:31:35;;;;;;;13.20;9.45;;;;;;;;;;5094314;27;97356;-75
2022/04/24 01:34:02;;;;;;;14.27;9.73;;;;;;;;;;5094861;27;95175;-74
2022/04/24 01:36:28;;;;;;;15.65;10.25;;;;;;;;;;5093990;27;96855;-74
2022/04/24 01:38:54;;;;;;;17.08;9.98;;;;;;;;;;5096781;27;97366;-74
2022/04/24 01:41:21;;;;;;;16.02;10.52;;;;;;;;;;5093843;27;96753;-74
2022/04/24 01:43:48;;;;;;;14.75;10.32;;;;;;;;;;5093733;27;97362;-75
2022/04/24 01:46:14;;;;;;;16.30;10.57;;;;;;;;;;5094159;27;95271;-74
2022/04/24 01:48:41;;;;;;;14.50;9.93;;;;;;;;;;5094258;27;96641;-75
2022/04/24 01:51:08;;;;;;;18.80;10.55;;;;;;;;;;5093438;27;97204;-74
2022/04/24 01:53:35;;;;;;;15.07;10.43;;;;;;;;;;5093009;27;95263;-75
2022/04/24 01:56:03;;;;;;;15.43;10.05;;;;;;;;;;5094182;27;96822;-75
2022/04/24 01:58:29;;;;;;;14.75;10.70;;;;;;;;;;5092505;27;96571;-74
2022/04/24 02:00:55;;;;;;;17.45;10.95;;;;;;;;;;5095775;27;95988;-74
2022/04/24 02:03:22;;;;;;;18.52;11.27;;;;;;;;;;5093118;27;97665;-74
2022/04/24 02:05:49;;;;;;;15.82;10.55;;;;;;;;;;5093730;27;95450;-75
2022/04/24 02:08:15;;;;;;;16.98;10.02;;;;;;;;;;5092331;27;97295;-74
2022/04/24 02:10:42;;;;;;;18.83;11.02;;;;;;;;;;5089325;27;97268;-74
2022/04/24 02:13:08;;;;;;;12.98;9.18;;;;;;;;;;5093779;27;95391;-74
2022/04/24 02:15:35;;;;;;;13.93;9.60;;;;;;;;;;5093785;27;96884;-74
2022/04/24 02:18:01;;;;;;;16.50;10.23;;;;;;;;;;5091917;27;99061;-75
2022/04/24 02:20:31;;;;;;;15.55;10.27;;;;;;;;;;5092449;27;95329;-74
2022/04/24 02:22:57;;;;;;;16.33;9.60;;;;;;;;;;5093966;27;96844;-74
2022/04/24 02:25:24;;;;;;;12.68;9.45;;;;;;;;;;5092609;27;95212;-74
2022/04/24 02:27:54;;;;;;;15.65;10.40;;;;;;;;;;5090013;27;97082;-74
2022/04/24 02:30:21;;;;;;;15.68;9.77;;;;;;;;;;5093031;27;97251;-75
2022/04/24 02:32:48;;;;;;;14.45;10.15;;;;;;;;;;5093380;27;95449;-74
2022/04/24 02:35:14;;;;;;;13.18;9.40;;;;;;;;;;5094014;27;96795;-75
2022/04/24 02:37:41;;;;;;;17.80;10.43;;;;;;;;;;5093220;27;97562;-75
2022/04/24 02:40:09;;;;;;;13.50;9.93;;;;;;;;;;5090550;27;96388;-75
2022/04/24 02:42:36;;;;;;;15.10;10.18;;;;;;;;;;5092643;27;96863;-75
2022/04/24 02:45:04;;;;;;;14.88;9.38;;;;;;;;;;5096684;27;97581;-74
2022/04/24 02:47:30;;;;;;;15.95;9.70;;;;;;;;;;5093250;27;96848;-74
2022/04/24 02:49:56;;;;;;;15.48;10.10;;;;;;;;;;5092895;27;97290;-74
2022/04/24 02:52:22;;;;;;;14.82;10.55;;;;;;;;;;5092492;27;95290;-74
2022/04/24 02:54:49;;;;;;;15.23;10.35;;;;;;;;;;5092152;27;96344;-74
2022/04/24 02:57:15;;;;;;;15.52;9.52;;;;;;;;;;5092792;27;97313;-74
2022/04/24 02:59:49;;;;;;;17.77;9.75;;;;;;;;;;5093996;27;95334;-75
2022/04/24 03:02:18;;;;;;;15.02;9.90;;;;;;;;;;5092873;27;95777;-74
2022/04/24 03:04:45;;;;;;;13.75;9.30;;;;;;;;;;5093254;27;97046;-75
2022/04/24 03:07:12;;;;;;;15.98;9.60;;;;;;;;;;5096174;27;95546;-74
2022/04/24 03:09:39;;;;;;;14.93;9.88;;;;;;;;;;5091835;27;97518;-75
2022/04/24 03:12:06;;;;;;;15.70;9.30;;;;;;;;;;5093388;27;95433;-74
2022/04/24 03:14:32;;;;;;;15.18;9.52;;;;;;;;;;5091313;27;96692;-75
2022/04/24 03:16:58;;;;;;;14.50;9.45;;;;;;;;;;5092769;27;97541;-75
2022/04/24 03:19:25;;;;;;;13.80;8.80;;;;;;;;;;5093056;27;96804;-75
2022/04/24 03:21:51;;;;;;;13.95;8.52;;;;;;;;;;5092542;27;96849;-74
2022/04/24 03:24:18;;;;;;;13.68;9.23;;;;;;;;;;5091576;27;97280;-75
2022/04/24 03:26:44;;;;;;;12.98;8.90;;;;;;;;;;5091405;27;95426;-74
2022/04/24 03:29:10;;;;;;;13.57;9.50;;;;;;;;;;5096037;27;97241;-74
2022/04/24 03:31:36;;;;;;;15.57;8.60;;;;;;;;;;5095661;27;95303;-74
2022/04/24 03:34:03;;;;;;;13.65;8.88;;;;;;;;;;5095711;27;95585;-75
2022/04/24 03:36:29;;;;;;;13.93;9.15;;;;;;;;;;5094428;27;97313;-75
2022/04/24 03:38:55;;;;;;;15.27;8.98;;;;;;;;;;5096497;27;95424;-75
2022/04/24 03:41:22;;;;;;;14.07;8.57;;;;;;;;;;5095884;27;96896;-75
2022/04/24 03:43:48;;;;;;;14.75;8.75;;;;;;;;;;5095366;27;97394;-74
2022/04/24 03:46:15;;;;;;;15.95;9.38;;;;;;;;;;5096081;27;95401;-74
2022/04/24 03:48:41;;;;;;;13.52;8.50;;;;;;;;;;5096869;27;96931;-74
2022/04/24 03:51:08;;;;;;;13.40;8.18;;;;;;;;;;5088944;27;95418;-74
2022/04/24 03:53:34;;;;;;;13.18;8.52;;;;;;;;;;5093036;27;96812;-74
2022/04/24 03:56:01;;;;;;;15.90;8.48;;;;;;;;;;5095653;27;97185;-75
2022/04/24 03:58:30;;;;;;;12.75;8.52;;;;;;;;;;5095555;27;95420;-73
2022/04/24 04:00:56;;;;;;;17.10;8.38;;;;;;;;;;5096464;27;96334;-73
2022/04/24 04:03:22;;;;;;;14.57;8.98;;;;;;;;;;5093670;27;97475;-75
2022/04/24 04:05:49;;;;;;;13.25;8.35;;;;;;;;;;5089549;27;96048;-75
2022/04/24 04:08:15;;;;;;;13.85;8.60;;;;;;;;;;5094177;27;96612;-72
2022/04/24 04:10:41;;;;;;;12.18;7.75;;;;;;;;;;5094580;27;99191;-74
2022/04/24 04:13:08;;;;;;;11.70;8.23;;;;;;;;;;5095555;27;95766;-73
2022/04/24 04:15:35;;;;;;;13.48;8.02;;;;;;;;;;5093585;27;99385;-75
2022/04/24 04:18:01;;;;;;;13.00;8.55;;;;;;;;;;5095801;27;95282;-75
2022/04/24 04:20:27;;;;;;;12.45;7.75;;;;;;;;;;5095805;27;96780;-74
2022/04/24 04:22:55;;;;;;;13.02;7.80;;;;;;;;;;5095066;27;97345;-75
2022/04/24 04:25:23;;;;;;;11.88;7.78;;;;;;;;;;5092797;27;95405;-74
2022/04/24 04:27:49;;;;;;;11.93;8.05;;;;;;;;;;5094763;27;96950;-75
2022/04/24 04:30:16;;;;;;;11.45;7.60;;;;;;;;;;5095650;27;97319;-74
2022/04/24 04:32:42;;;;;;;11.27;7.85;;;;;;;;;;5096422;27;95573;-75
2022/04/24 04:35:12;;;;;;;13.73;7.93;;;;;;;;;;5095122;27;97302;-74
2022/04/24 04:37:39;;;;;;;10.25;7.18;;;;;;;;;;5093729;27;95200;-74
2022/04/24 04:40:07;;;;;;;9.63;7.50;;;;;;;;;;5095330;27;96929;-75
2022/04/24 04:42:33;;;;;;;12.27;7.40;;;;;;;;;;5094157;27;96014;-74
2022/04/24 04:45:00;;;;;;;11.02;7.60;;;;;;;;;;5094720;27;95999;-74
2022/04/24 04:47:30;;;;;;;12.50;7.22;;;;;;;;;;5092188;27;96063;-75
2022/04/24 04:49:56;;;;;;;12.93;7.75;;;;;;;;;;5094946;27;96926;-74
2022/04/24 04:52:23;;;;;;;14.35;8.45;;;;;;;;;;5094292;27;95724;-74
2022/04/24 04:54:49;;;;;;;13.88;7.70;;;;;;;;;;5098325;27;96759;-75
2022/04/24 04:57:16;;;;;;;10.57;6.80;;;;;;;;;;5093004;27;95146;-73
2022/04/24 04:59:42;;;;;;;10.65;6.72;;;;;;;;;;5085856;27;97225;-75
2022/04/24 05:02:09;;;;;;;10.80;6.60;;;;;;;;;;5089183;27;97186;-75
2022/04/24 05:04:36;;;;;;;10.88;7.57;;;;;;;;;;5091135;27;95317;-75
2022/04/24 05:07:03;;;;;;;11.93;6.75;;;;;;;;;;5087112;27;96641;-74
2022/04/24 05:09:31;;;;;;;9.40;6.78;;;;;;;;;;5089375;27;96258;-75
2022/04/24 05:12:00;;;;;;;9.60;6.70;;;;;;;;;;5091409;27;96111;-74
2022/04/24 12:36:52;;;;;;;9.88;4.47;;;;;;;;;;5058259;27;95333;-83
2022/04/24 12:39:22;;;;;;;6.57;4.10;;;;;;;;;;5042765;27;97337;-83
2022/04/24 12:41:49;;;;;;;8.43;4.32;;;;;;;;;;5050886;27;95478;-85
2022/04/24 12:44:15;;;;;;;6.38;3.67;;;;;;;;;;5047577;27;95686;-79
2022/04/24 12:46:42;;;;;;;5.65;3.58;;;;;;;;;;5048277;27;97298;-79
2022/04/24 12:49:09;;;;;;;8.98;4.00;;;;;;;;;;5047483;27;95422;-80
2022/04/24 12:51:35;;;;;;;10.55;4.13;;;;;;;;;;5047741;27;96729;-81
2022/04/24 12:54:03;;;;;;;5.13;3.67;;;;;;;;;;5047512;27;97341;-77
2022/04/24 12:56:29;;;;;;;7.05;3.83;;;;;;;;;;5048981;27;95463;-81
2022/04/24 12:58:58;;;;;;;8.85;4.10;;;;;;;;;;5047289;27;97764;-80
2022/04/24 13:01:25;;;;;;;7.18;3.75;;;;;;;;;;5048930;27;96669;-82
2022/04/24 13:03:54;;;;;;;7.80;4.10;;;;;;;;;;5048285;27;96641;-80
2022/04/24 13:06:25;;;;;;;6.50;3.53;;;;;;;;;;5046000;27;97378;-80
2022/04/24 13:08:54;;;;;;;6.05;3.30;;;;;;;;;;5048384;27;95462;-81
2022/04/24 13:11:23;;;;;;;6.32;3.70;;;;;;;;;;5048182;27;96777;-77
2022/04/24 13:13:50;;;;;;;7.00;3.70;;;;;;;;;;5048331;27;97425;-76
2022/04/24 13:19:01;;;;;;;7.18;3.58;;;;;;;;;;5050114;27;96711;-76
2022/04/24 13:21:27;;;;;;;5.90;3.70;;;;;;;;;;5047955;27;95394;-76
2022/04/24 13:23:54;;;;;;;5.88;3.40;;;;;;;;;;5049241;27;96811;-78
2022/04/24 13:26:22;;;;;;;5.97;3.67;;;;;;;;;;5046860;27;96263;-74
2022/04/24 13:28:48;;;;;;;9.05;3.95;;;;;;;;;;5049250;27;95323;-74
2022/04/24 13:31:15;;;;;;;9.25;3.97;;;;;;;;;;5048676;27;96884;-75
2022/04/24 13:33:49;;;;;;;8.90;3.65;;;;;;;;;;5045219;27;97255;-81
2022/04/24 13:36:16;;;;;;;9.05;4.00;;;;;;;;;;5064171;27;95319;-75
2022/04/24 13:38:48;;;;;;;5.78;4.03;;;;;;;;;;5069307;27;96794;-79
2022/04/24 19:24:04;;;;;;;9.65;4.25;;;;;;;;;;5072133;27;96493;-76
2022/04/24 19:26:31;;;;;;;13.68;4.65;;;;;;;;;;5062826;27;97004;-79
2022/04/24 19:28:57;;;;;;;10.00;4.57;;;;;;;;;;5060698;27;95118;-79
2022/04/24 19:31:24;;;;;;;9.02;4.47;;;;;;;;;;5065736;27;96986;-77
2022/04/24 19:33:50;;;;;;;10.07;3.80;;;;;;;;;;5066698;27;96505;-80
2022/04/24 19:36:17;;;;;;;9.13;4.30;;;;;;;;;;5066808;27;95283;-77
2022/04/24 19:38:44;;;;;;;10.77;4.18;;;;;;;;;;5067355;27;95844;-78
2022/04/24 19:41:13;;;;;;;9.38;4.28;;;;;;;;;;5064225;27;97195;-78
2022/04/24 19:43:40;;;;;;;11.98;4.30;;;;;;;;;;5071465;27;95205;-79
2022/04/24 19:46:06;;;;;;;9.88;4.95;;;;;;;;;;5068149;27;97324;-77
2022/04/24 19:51:17;;;;;;;10.57;4.60;;;;;;;;;;5068123;27;97077;-80
2022/04/24 19:53:44;;;;;;;5.90;3.80;;;;;;;;;;5066601;27;97357;-80
2022/04/24 19:56:12;;;;;;;9.05;4.50;;;;;;;;;;5067474;27;96578;-79
2022/04/24 19:58:39;;;;;;;10.23;4.40;;;;;;;;;;5065673;27;96644;-80
2022/04/24 20:01:05;;;;;;;9.02;3.92;;;;;;;;;;5067131;27;97480;-80
2022/04/24 20:03:31;;;;;;;9.65;4.20;;;;;;;;;;5067492;27;95720;-79
2022/04/24 20:05:58;;;;;;;11.38;4.15;;;;;;;;;;5070427;27;96614;-78
2022/04/24 20:08:24;;;;;;;6.95;4.30;;;;;;;;;;5065595;27;95248;-79
2022/04/24 20:10:51;;;;;;;9.50;4.40;;;;;;;;;;5068201;27;97100;-76
2022/04/24 20:13:19;;;;;;;14.00;4.43;;;;;;;;;;5067272;27;97302;-74
2022/04/24 20:15:46;;;;;;;9.20;4.20;;;;;;;;;;5065540;27;95920;-75
2022/04/24 20:18:12;;;;;;;12.40;3.95;;;;;;;;;;5063894;27;95819;-78
2022/04/24 20:20:39;;;;;;;8.70;4.28;;;;;;;;;;5066527;27;96940;-75
2022/04/24 20:23:07;;;;;;;9.38;4.30;;;;;;;;;;5066147;27;95149;-76
2022/04/24 20:25:33;;;;;;;10.10;4.30;;;;;;;;;;5066425;27;96653;-77
2022/04/24 20:27:59;;;;;;;9.13;4.40;;;;;;;;;;5069787;27;96233;-77
2022/04/24 20:30:26;;;;;;;10.32;4.05;;;;;;;;;;5066934;27;96712;-76
2022/04/24 20:32:52;;;;;;;12.45;4.43;;;;;;;;;;5066528;27;97276;-76
2022/04/24 20:35:19;;;;;;;13.27;4.60;;;;;;;;;;5051514;27;95324;-75
2022/04/24 20:37:46;;;;;;;7.43;4.25;;;;;;;;;;5053896;27;96725;-79
2022/04/24 20:40:12;;;;;;;10.55;4.25;;;;;;;;;;5049914;27;97172;-75
2022/04/24 20:42:39;;;;;;;9.57;4.70;;;;;;;;;;5050965;27;95525;-78
2022/04/24 20:45:13;;;;;;;10.13;4.78;;;;;;;;;;5053480;27;97096;-78
2022/04/24 20:47:39;;;;;;;12.00;4.97;;;;;;;;;;5053156;27;97386;-78
2022/04/24 20:50:06;;;;;;;7.93;4.38;;;;;;;;;;5054231;27;96588;-81
2022/04/24 20:52:32;;;;;;;9.38;4.53;;;;;;;;;;5051581;27;97525;-83
2022/04/24 20:54:59;;;;;;;10.48;4.60;;;;;;;;;;5054724;27;95199;-80
2022/04/24 20:57:25;;;;;;;12.38;4.70;;;;;;;;;;5053888;27;96978;-79
2022/04/24 20:59:51;;;;;;;7.45;4.30;;;;;;;;;;5053856;27;97432;-79
2022/04/24 21:02:23;;;;;;;9.13;4.00;;;;;;;;;;5048395;27;96730;-76
2022/04/24 21:04:49;;;;;;;12.75;5.10;;;;;;;;;;5052620;27;96652;-76
2022/04/24 21:07:16;;;;;;;7.95;4.70;;;;;;;;;;5052813;27;97612;-78
2022/04/24 21:09:42;;;;;;;9.07;4.70;;;;;;;;;;5053123;27;95780;-78
2022/04/24 21:12:09;;;;;;;15.02;5.22;;;;;;;;;;5052939;27;97008;-78
2022/04/24 21:14:36;;;;;;;10.73;4.93;;;;;;;;;;5051196;27;95232;-76
2022/04/24 21:17:23;;;;;;;11.02;5.00;;;;;;;;;;5041736;27;98623;-76
2022/04/24 21:19:49;;;;;;;11.02;4.95;;;;;;;;;;5049747;27;97417;-74
2022/04/24 21:22:15;;;;;;;10.23;4.88;;;;;;;;;;5048692;27;95354;-75
2022/04/24 21:24:42;;;;;;;7.90;4.40;;;;;;;;;;5051771;27;96998;-73
2022/04/24 21:27:08;;;;;;;13.13;4.88;;;;;;;;;;5051265;27;97635;-77
2022/04/24 21:29:34;;;;;;;12.52;4.90;;;;;;;;;;5044133;27;95341;-76
2022/04/24 21:32:01;;;;;;;11.15;4.47;;;;;;;;;;5051477;27;97107;-77
2022/04/24 21:34:28;;;;;;;10.70;4.75;;;;;;;;;;5056277;27;95218;-77
2022/04/24 21:36:55;;;;;;;12.52;4.53;;;;;;;;;;5053459;27;96844;-78
2022/04/24 21:39:24;;;;;;;12.32;5.07;;;;;;;;;;5052991;27;97345;-77
2022/04/24 21:41:53;;;;;;;13.20;5.05;;;;;;;;;;5043498;27;96184;-76
2022/04/24 21:44:22;;;;;;;12.45;5.30;;;;;;;;;;5039804;27;96914;-79
2022/04/24 21:46:49;;;;;;;9.00;4.80;;;;;;;;;;5051862;27;97756;-78
2022/04/24 21:49:16;;;;;;;11.70;5.68;;;;;;;;;;5054107;27;96446;-75
2022/04/24 21:51:43;;;;;;;10.88;5.10;;;;;;;;;;5054069;27;99186;-80
2022/04/24 21:54:11;;;;;;;11.20;5.10;;;;;;;;;;5053486;27;97299;-76
2022/04/24 21:56:37;;;;;;;16.55;5.57;;;;;;;;;;5052537;27;96550;-74
2022/04/24 21:59:03;;;;;;;13.60;5.28;;;;;;;;;;5052938;27;97976;-76
2022/04/24 22:04:22;;;;;;;9.77;5.40;;;;;;;;;;5049784;27;97009;-78
2022/04/24 22:06:53;;;;;;;11.52;5.85;;;;;;;;;;5053208;27;97174;-77
2022/04/24 22:09:19;;;;;;;9.15;5.53;;;;;;;;;;5053877;27;95121;-74
2022/04/24 22:11:47;;;;;;;12.68;5.50;;;;;;;;;;5053926;27;96699;-78
2022/04/24 22:14:13;;;;;;;12.35;6.75;;;;;;;;;;5053146;27;97557;-80
2022/04/24 22:16:42;;;;;;;11.85;5.80;;;;;;;;;;5056852;27;95331;-74
2022/04/24 22:19:09;;;;;;;10.68;5.80;;;;;;;;;;5049848;27;97627;-76
2022/04/24 22:24:29;;;;;;;10.02;5.90;;;;;;;;;;5052969;27;96819;-78
2022/04/24 22:27:00;;;;;;;14.60;5.90;;;;;;;;;;5053464;27;97447;-77
2022/04/24 22:29:28;;;;;;;13.13;6.15;;;;;;;;;;5050725;27;96652;-78
2022/04/24 22:31:55;;;;;;;13.75;6.60;;;;;;;;;;5053834;27;96769;-80
2022/04/24 22:34:22;;;;;;;13.15;6.18;;;;;;;;;;5051686;27;99320;-79
2022/04/24 22:36:48;;;;;;;11.57;5.75;;;;;;;;;;5053704;27;95329;-73
2022/04/24 22:39:14;;;;;;;13.10;6.07;;;;;;;;;;5052282;27;96480;-77
2022/04/24 22:41:41;;;;;;;13.27;6.47;;;;;;;;;;5051417;27;95302;-81
2022/04/24 22:44:08;;;;;;;13.18;6.90;;;;;;;;;;5052838;27;96905;-76
2022/04/24 22:46:34;;;;;;;11.70;6.32;;;;;;;;;;5031630;27;97375;-80
2022/04/24 22:49:01;;;;;;;12.65;6.40;;;;;;;;;;5043915;27;95445;-80
2022/04/24 22:51:28;;;;;;;15.45;7.03;;;;;;;;;;5053129;27;96767;-77
2022/04/24 22:53:54;;;;;;;13.05;6.53;;;;;;;;;;5052140;27;97641;-78
2022/04/24 22:56:21;;;;;;;15.15;6.82;;;;;;;;;;5052396;27;95370;-74
2022/04/24 22:58:47;;;;;;;13.32;6.82;;;;;;;;;;5050744;27;96608;-77
2022/04/24 23:01:15;;;;;;;13.30;6.80;;;;;;;;;;5052931;27;97439;-77
2022/04/24 23:03:41;;;;;;;13.52;7.10;;;;;;;;;;5050560;27;97552;-76
2022/04/24 23:06:08;;;;;;;13.70;7.00;;;;;;;;;;5040381;27;97569;-80
2022/04/24 23:08:34;;;;;;;16.73;7.57;;;;;;;;;;5051947;27;95378;-77
2022/04/24 23:11:02;;;;;;;14.43;7.15;;;;;;;;;;5052137;27;96734;-79
2022/04/24 23:13:28;;;;;;;13.15;6.85;;;;;;;;;;5050672;27;97506;-79
2022/04/24 23:15:54;;;;;;;12.27;6.88;;;;;;;;;;5052242;27;95582;-78
2022/04/24 23:21:06;;;;;;;14.43;8.00;;;;;;;;;;5053204;27;97255;-75
2022/04/24 23:23:35;;;;;;;14.13;7.05;;;;;;;;;;5053896;27;95287;-73
2022/04/24 23:26:01;;;;;;;15.90;7.70;;;;;;;;;;5050731;27;97269;-75
2022/04/24 23:28:28;;;;;;;14.43;7.82;;;;;;;;;;5051631;27;95395;-74
2022/04/24 23:30:54;;;;;;;12.75;7.60;;;;;;;;;;5047195;27;96807;-77
2022/04/24 23:33:20;;;;;;;18.33;8.00;;;;;;;;;;5050806;27;97312;-72
2022/04/24 23:35:47;;;;;;;15.68;7.63;;;;;;;;;;5052301;27;95065;-76
2022/04/24 23:38:13;;;;;;;13.73;7.93;;;;;;;;;;5051819;27;96829;-73
2022/04/24 23:40:40;;;;;;;14.10;7.70;;;;;;;;;;5047381;27;96230;-76
2022/04/24 23:43:06;;;;;;;18.77;8.07;;;;;;;;;;5054034;27;95197;-73
2022/04/24 23:45:32;;;;;;;14.05;7.80;;;;;;;;;;5051480;27;97636;-73
2022/04/24 23:47:58;;;;;;;17.58;8.77;;;;;;;;;;5051907;27;95199;-76
2022/04/24 23:50:25;;;;;;;18.50;8.48;;;;;;;;;;5050841;27;95699;-73
2022/04/24 23:52:52;;;;;;;14.48;8.23;;;;;;;;;;5051021;27;96293;-76
2022/04/24 23:55:18;;;;;;;16.73;8.50;;;;;;;;;;5049809;27;95466;-77
2022/04/24 23:57:45;;;;;;;15.32;8.45;;;;;;;;;;5052721;27;96765;-76
